Time;durP1;ratioP1;P1;durP2;ratioP2;P2;SDS_P1;SDS_P2;PMS_P1;PMS_P2;Temp;Humidity;BMP_temperature;BMP_pressure;BME280_temperature;BME280_humidity;BME280_pressure;Samples;Min_cycle;Max_cycle;Signal;HPM_P1;HPM_P2
2021/07/11 00:02:21;;;;;;;3.50;3.20;;;16.70;99.90;;;;;;6124986;29;20573;-76
2021/07/11 00:05:24;;;;;;;7.63;4.78;;;16.70;99.90;;;;;;6125406;29;20421;-77
2021/07/11 00:08:26;;;;;;;;;;;16.70;99.90;;;;;;6125138;29;20076;-78
2021/07/11 00:11:28;;;;;;;5.10;3.35;;;16.70;99.90;;;;;;6124251;29;20399;-77
2021/07/11 00:14:31;;;;;;;4.55;4.15;;;16.70;99.90;;;;;;6119094;29;20131;-77
2021/07/11 00:17:33;;;;;;;5.53;3.50;;;16.70;99.90;;;;;;6125258;29;20052;-78
2021/07/11 00:20:35;;;;;;;4.65;4.00;;;16.70;99.90;;;;;;6124683;29;20421;-78
2021/07/11 00:23:37;;;;;;;5.40;3.90;;;16.70;99.90;;;;;;6131652;29;20479;-78
2021/07/11 00:26:39;;;;;;;5.53;4.53;;;17.10;99.90;;;;;;6129260;29;20574;-77
2021/07/11 00:29:42;;;;;;;4.88;3.85;;;17.40;99.90;;;;;;6123946;29;20924;-77
2021/07/11 00:32:45;;;;;;;4.20;3.40;;;17.70;99.90;;;;;;6124608;29;20126;-77
2021/07/11 00:35:47;;;;;;;3.80;3.33;;;17.40;99.90;;;;;;6124927;29;20131;-78
2021/07/11 00:38:49;;;;;;;8.43;3.28;;;17.30;99.90;;;;;;6132186;29;20071;-78
2021/07/11 00:41:51;;;;;;;4.45;3.90;;;17.20;99.90;;;;;;6133105;29;20134;-78
2021/07/11 00:44:54;;;;;;;7.10;4.13;;;17.20;99.90;;;;;;6132543;29;20067;-78
2021/07/11 00:47:56;;;;;;;5.40;3.47;;;17.20;99.90;;;;;;6132474;29;20051;-78
2021/07/11 00:50:58;;;;;;;4.80;3.83;;;17.10;99.90;;;;;;6132992;29;20135;-78
2021/07/11 00:53:59;;;;;;;4.15;3.72;;;17.10;99.90;;;;;;6130833;29;20056;-78
2021/07/11 00:57:01;;;;;;;3.55;3.20;;;17.10;99.90;;;;;;6130671;29;20055;-78
2021/07/11 01:00:08;;;;;;;5.70;3.28;;;17.10;99.90;;;;;;6130901;29;20769;-77
2021/07/11 01:03:17;;;;;;;4.95;4.32;;;17.10;99.90;;;;;;6146227;29;20106;-78
2021/07/11 01:06:21;;;;;;;5.32;4.68;;;17.10;99.90;;;;;;6130571;29;20512;-78
2021/07/11 01:09:29;;;;;;;5.05;3.72;;;17.10;99.90;;;;;;6130516;29;20060;-77
2021/07/11 01:12:32;;;;;;;5.00;3.42;;;17.10;99.90;;;;;;6130478;28;20130;-78
2021/07/11 01:15:38;;;;;;;4.43;2.88;;;17.10;99.90;;;;;;6129990;29;20149;-77
2021/07/11 01:18:43;;;;;;;5.18;3.75;;;17.10;99.90;;;;;;6129875;29;20071;-77
2021/07/11 01:21:51;;;;;;;7.22;3.90;;;17.10;99.90;;;;;;6129650;29;20082;-77
2021/07/11 01:25:01;;;;;;;3.45;3.15;;;17.10;99.90;;;;;;6129174;29;20488;-78
2021/07/11 01:28:08;;;;;;;4.03;3.63;;;17.20;99.90;;;;;;6128476;29;20134;-78
2021/07/11 01:31:11;;;;;;;6.43;3.50;;;17.20;99.90;;;;;;6130362;29;20126;-78
2021/07/11 01:34:14;;;;;;;4.30;3.90;;;17.20;99.90;;;;;;6131394;29;20058;-78
2021/07/11 01:37:17;;;;;;;4.68;4.05;;;17.20;99.90;;;;;;6130567;29;20141;-78
2021/07/11 01:40:19;;;;;;;5.38;3.03;;;17.10;99.90;;;;;;6131326;29;20079;-78
2021/07/11 01:43:24;;;;;;;3.55;3.25;;;17.10;99.90;;;;;;6130718;29;20527;-78
2021/07/11 01:46:27;;;;;;;4.72;4.28;;;17.10;99.90;;;;;;6128107;29;20051;-77
2021/07/11 01:49:29;;;;;;;4.55;3.60;;;17.10;99.90;;;;;;6131621;29;20797;-78
2021/07/11 01:52:31;;;;;;;4.05;3.58;;;17.10;99.90;;;;;;6128529;29;20043;-77
2021/07/11 01:55:33;;;;;;;4.63;3.90;;;17.10;99.90;;;;;;6127686;29;20091;-78
2021/07/11 01:58:36;;;;;;;6.13;4.13;;;17.10;99.90;;;;;;6128644;29;20126;-78
2021/07/11 02:01:38;;;;;;;3.15;2.80;;;17.20;99.90;;;;;;6128725;29;20061;-77
2021/07/11 02:04:40;;;;;;;4.70;3.45;;;17.20;99.90;;;;;;6127894;29;20130;-77
2021/07/11 02:07:42;;;;;;;4.47;3.90;;;17.20;99.90;;;;;;6127862;29;20135;-77
2021/07/11 02:10:46;;;;;;;6.07;3.58;;;17.20;99.90;;;;;;6128135;29;20139;-78
2021/07/11 02:13:52;;;;;;;2.90;2.63;;;17.20;99.90;;;;;;6127275;29;20075;-78
2021/07/11 02:16:59;;;;;;;4.88;3.72;;;17.20;99.90;;;;;;6127811;29;20146;-77
2021/07/11 02:20:02;;;;;;;4.28;3.88;;;17.20;99.90;;;;;;6128134;29;20069;-78
2021/07/11 02:23:05;;;;;;;5.35;3.17;;;17.10;99.90;;;;;;6127801;29;20676;-77
2021/07/11 02:26:07;;;;;;;4.32;3.28;;;17.10;99.90;;;;;;6128165;29;20107;-78
2021/07/11 02:29:11;;;;;;;3.90;3.45;;;17.00;99.90;;;;;;6130421;29;20059;-77
2021/07/11 02:32:15;;;;;;;5.78;3.83;;;17.00;99.90;;;;;;6128381;29;20164;-77
2021/07/11 02:35:20;;;;;;;6.10;3.95;;;16.90;99.90;;;;;;6127683;29;20043;-77
2021/07/11 02:38:23;;;;;;;4.10;3.67;;;16.90;99.90;;;;;;6127587;29;20103;-77
2021/07/11 02:41:29;;;;;;;5.97;3.67;;;16.90;99.90;;;;;;6132320;29;20103;-78
2021/07/11 02:44:33;;;;;;;4.60;3.47;;;16.90;99.90;;;;;;6136060;29;20134;-78
2021/07/11 02:47:38;;;;;;;5.18;3.70;;;16.80;99.90;;;;;;6129231;29;20542;-78
2021/07/11 02:50:45;;;;;;;5.97;3.38;;;16.80;99.90;;;;;;6129193;29;20158;-78
2021/07/11 02:53:48;;;;;;;5.38;3.75;;;16.80;99.90;;;;;;6130067;29;20052;-78
2021/07/11 02:56:58;;;;;;;8.70;4.35;;;16.70;99.90;;;;;;6129238;29;20050;-78
2021/07/11 03:00:01;;;;;;;3.83;3.53;;;16.70;99.90;;;;;;6129240;29;20682;-79
2021/07/11 03:03:04;;;;;;;3.78;2.90;;;16.80;99.90;;;;;;6129873;29;20052;-78
2021/07/11 03:06:07;;;;;;;4.05;3.63;;;16.70;99.90;;;;;;6129392;29;20198;-79
2021/07/11 03:09:09;;;;;;;6.68;4.72;;;16.70;99.90;;;;;;6129362;29;20191;-78
2021/07/11 03:12:11;;;;;;;6.07;4.32;;;16.70;99.90;;;;;;6127004;29;20448;-78
2021/07/11 03:15:15;;;;;;;4.15;3.53;;;17.10;99.90;;;;;;6127401;29;20090;-78
2021/07/11 03:18:18;;;;;;;6.45;4.13;;;16.90;99.90;;;;;;6128324;29;20059;-78
2021/07/11 03:21:23;;;;;;;4.97;4.22;;;16.90;99.90;;;;;;6128940;29;20526;-78
2021/07/11 03:24:26;;;;;;;4.30;3.90;;;16.80;99.90;;;;;;6128908;29;20083;-77
2021/07/11 03:27:29;;;;;;;5.43;4.03;;;16.80;99.90;;;;;;6128657;29;20071;-77
2021/07/11 03:30:37;;;;;;;6.45;4.10;;;16.80;99.90;;;;;;6129146;29;20047;-77
2021/07/11 03:33:43;;;;;;;3.72;3.42;;;16.80;99.90;;;;;;6128278;29;20654;-77
2021/07/11 03:36:46;;;;;;;7.13;4.50;;;16.80;99.90;;;;;;6126561;29;20071;-78
2021/07/11 03:39:50;;;;;;;4.40;3.85;;;16.70;99.90;;;;;;6127589;29;20095;-77
2021/07/11 03:42:54;;;;;;;6.72;4.40;;;16.70;99.90;;;;;;6127349;29;20051;-77
2021/07/11 03:46:01;;;;;;;5.65;4.38;;;16.70;99.90;;;;;;6128140;29;20196;-77
2021/07/11 03:49:06;;;;;;;4.25;3.85;;;16.70;99.90;;;;;;6151541;29;20130;-77
2021/07/11 03:52:11;;;;;;;5.68;3.33;;;16.80;99.90;;;;;;6153165;29;20637;-77
2021/07/11 03:55:14;;;;;;;5.38;3.88;;;16.80;99.90;;;;;;6148198;29;20118;-77
2021/07/11 03:58:18;;;;;;;6.70;4.53;;;16.70;99.90;;;;;;6128843;29;20541;-77
2021/07/11 04:01:25;;;;;;;9.68;4.40;;;16.80;99.90;;;;;;6127929;29;20429;-77
2021/07/11 04:04:28;;;;;;;4.38;3.97;;;16.80;99.90;;;;;;6127750;29;20071;-76
2021/07/11 04:07:33;;;;;;;11.48;3.97;;;16.80;99.90;;;;;;6126793;29;20047;-77
2021/07/11 04:10:36;;;;;;;4.88;3.70;;;16.80;99.90;;;;;;6127216;29;20073;-77
2021/07/11 04:13:38;;;;;;;7.07;4.20;;;16.80;99.90;;;;;;6132565;29;20519;-77
2021/07/11 04:16:42;;;;;;;12.45;3.78;;;16.80;99.90;;;;;;6129689;29;20040;-77
2021/07/11 04:19:46;;;;;;;4.93;4.53;;;16.90;99.90;;;;;;6131711;29;20083;-77
2021/07/11 04:22:49;;;;;;;7.10;4.13;;;16.90;99.90;;;;;;6131887;29;20083;-78
2021/07/11 04:25:55;;;;;;;9.82;4.13;;;16.90;99.90;;;;;;6132006;29;20135;-77
2021/07/11 04:28:57;;;;;;;5.18;3.75;;;16.90;99.90;;;;;;6131663;29;20441;-77
2021/07/11 04:32:02;;;;;;;6.78;3.88;;;16.90;99.90;;;;;;6131383;29;20094;-78
2021/07/11 04:35:04;;;;;;;5.55;3.95;;;16.90;99.90;;;;;;6131700;29;20063;-77
2021/07/11 04:38:06;;;;;;;9.88;4.38;;;17.00;99.90;;;;;;6130873;29;20071;-76
2021/07/11 04:41:10;;;;;;;9.82;7.15;;;16.90;99.90;;;;;;6131422;29;20047;-76
2021/07/11 04:44:12;;;;;;;6.63;4.03;;;17.00;99.90;;;;;;6130459;29;20044;-77
2021/07/11 04:47:15;;;;;;;6.05;4.65;;;16.90;99.90;;;;;;6130678;29;20047;-78
2021/07/11 04:50:17;;;;;;;5.30;4.03;;;17.00;99.90;;;;;;6130944;29;20132;-77
2021/07/11 04:53:19;;;;;;;5.32;4.25;;;17.00;99.90;;;;;;6131526;29;20540;-77
2021/07/11 04:56:21;;;;;;;5.15;4.03;;;17.00;99.90;;;;;;6130508;29;20166;-77
2021/07/11 04:59:23;;;;;;;5.97;3.70;;;17.00;99.90;;;;;;6130970;29;20076;-77
2021/07/11 05:02:26;;;;;;;6.32;3.78;;;17.00;99.90;;;;;;6131217;29;20163;-76
2021/07/11 05:05:28;;;;;;;10.80;4.28;;;17.10;99.90;;;;;;6131204;29;20134;-77
2021/07/11 05:08:30;;;;;;;;;;;17.10;99.90;;;;;;6131614;29;20051;-78
2021/07/11 05:11:32;;;;;;;9.15;4.75;;;17.10;99.90;;;;;;6131170;29;19969;-77
2021/07/11 05:14:34;;;;;;;7.22;3.05;;;17.20;99.90;;;;;;6131282;29;20147;-77
2021/07/11 05:17:37;;;;;;;5.40;3.42;;;17.30;99.90;;;;;;6128411;29;20107;-76
2021/07/11 05:20:39;;;;;;;3.80;3.47;;;17.50;99.90;;;;;;6130007;29;20506;-77
2021/07/11 05:23:40;;;;;;;;;;;17.70;99.90;;;;;;6130274;29;20130;-78
2021/07/11 05:26:42;;;;;;;6.40;3.85;;;17.90;99.90;;;;;;6128595;29;20463;-77
2021/07/11 05:29:44;;;;;;;3.53;2.85;;;18.10;99.90;;;;;;6130796;29;20091;-76
2021/07/11 05:32:47;;;;;;;6.88;4.25;;;18.40;99.90;;;;;;6129596;29;20714;-78
2021/07/11 05:35:49;;;;;;;6.22;2.97;;;18.60;99.90;;;;;;6129498;29;20127;-77
2021/07/11 05:38:51;;;;;;;5.55;3.60;;;18.80;99.90;;;;;;6129411;29;20072;-75
2021/07/11 05:41:53;;;;;;;5.22;3.28;;;19.00;99.90;;;;;;6130803;29;20131;-77
2021/07/11 05:44:55;;;;;;;6.03;3.03;;;19.30;99.90;;;;;;6130181;29;20071;-76
2021/07/11 05:47:58;;;;;;;3.20;2.50;;;19.50;99.90;;;;;;6129643;29;20127;-77
2021/07/11 05:51:00;;;;;;;4.65;2.45;;;19.60;99.90;;;;;;6129549;29;20131;-77
2021/07/11 05:54:01;;;;;;;11.38;2.58;;;19.80;99.90;;;;;;6129128;29;20465;-77
2021/07/11 05:57:04;;;;;;;4.35;2.90;;;20.00;99.90;;;;;;6130434;29;20217;-76
2021/07/11 06:00:07;;;;;;;3.25;2.17;;;20.10;99.90;;;;;;6129510;29;20047;-77
2021/07/11 06:03:11;;;;;;;6.80;2.45;;;20.30;99.90;;;;;;6127784;29;20127;-77
2021/07/11 06:06:13;;;;;;;4.65;2.00;;;20.80;99.90;;;;;;6142178;28;20071;-77
2021/07/11 06:09:15;;;;;;;2.55;2.35;;;21.60;97.90;;;;;;6129988;29;20079;-78
2021/07/11 06:12:17;;;;;;;2.92;1.88;;;22.30;95.60;;;;;;6128934;29;20075;-78
2021/07/11 06:15:18;;;;;;;3.90;2.30;;;23.00;94.30;;;;;;6151296;28;20051;-77
2021/07/11 06:18:22;;;;;;;4.28;1.83;;;23.40;91.60;;;;;;6127994;28;20119;-77
2021/07/11 06:21:23;;;;;;;5.20;2.35;;;23.80;91.10;;;;;;6131940;29;20509;-77
2021/07/11 06:24:25;;;;;;;2.28;2.08;;;23.70;90.60;;;;;;6153760;28;20106;-77
2021/07/11 06:27:27;;;;;;;3.78;2.67;;;23.70;89.00;;;;;;6153965;28;20087;-77
2021/07/11 06:30:29;;;;;;;3.13;1.85;;;23.70;88.20;;;;;;6154072;28;20121;-77
2021/07/11 06:33:32;;;;;;;2.80;1.88;;;23.70;88.40;;;;;;6153695;29;20138;-77
2021/07/11 06:36:34;;;;;;;;;;;24.00;87.50;;;;;;6182428;23;20127;-76
2021/07/11 06:39:36;;;;;;;5.10;1.83;;;24.20;92.60;;;;;;6222799;28;19925;-76
2021/07/11 06:42:38;;;;;;;2.50;1.70;;;24.40;85.20;;;;;;6223016;28;20045;-77
2021/07/11 06:45:40;;;;;;;1.92;1.48;;;24.60;82.10;;;;;;6222918;28;20095;-77
2021/07/11 06:48:43;;;;;;;7.97;1.70;;;24.70;80.40;;;;;;6222485;28;20046;-77
2021/07/11 06:51:45;;;;;;;3.40;1.48;;;25.00;80.30;;;;;;6222845;28;20125;-77
2021/07/11 06:54:50;;;;;;;1.55;1.30;;;25.60;74.40;;;;;;6223104;28;20125;-77
2021/07/11 06:57:52;;;;;;;3.10;1.63;;;25.30;74.00;;;;;;6221829;28;20437;-77
2021/07/11 07:00:54;;;;;;;4.72;1.52;;;25.30;68.50;;;;;;6221040;28;20456;-77
2021/07/11 07:03:57;;;;;;;1.92;1.58;;;25.40;67.70;;;;;;6221274;28;20550;-77
2021/07/11 07:06:59;;;;;;;6.13;1.87;;;25.10;67.00;;;;;;6220508;28;20441;-77
2021/07/11 07:10:01;;;;;;;3.73;2.00;;;24.90;67.30;;;;;;6221031;28;20853;-77
2021/07/11 07:13:03;;;;;;;1.50;1.38;;;24.60;67.60;;;;;;6222891;28;20395;-77
2021/07/11 07:16:05;;;;;;;1.73;1.38;;;24.20;72.00;;;;;;6222551;28;20041;-77
2021/07/11 07:19:09;;;;;;;2.40;1.85;;;23.90;73.00;;;;;;6221323;28;20096;-77
2021/07/11 07:22:11;;;;;;;2.72;1.67;;;23.60;73.90;;;;;;6222884;28;20136;-78
2021/07/11 07:25:14;;;;;;;1.88;1.58;;;23.40;74.70;;;;;;6224695;28;20081;-77
2021/07/11 07:28:16;;;;;;;8.30;2.33;;;23.40;75.60;;;;;;6224455;28;20132;-78
2021/07/11 07:31:18;;;;;;;3.90;1.52;;;23.30;75.90;;;;;;6220320;28;20137;-78
2021/07/11 07:34:21;;;;;;;3.10;1.83;;;23.40;76.20;;;;;;6223721;28;20053;-79
2021/07/11 07:37:23;;;;;;;2.20;1.75;;;23.50;76.80;;;;;;6221799;28;20658;-77
2021/07/11 07:40:25;;;;;;;5.30;2.25;;;23.30;76.40;;;;;;6222021;28;20069;-79
2021/07/11 07:43:27;;;;;;;2.58;1.88;;;22.80;77.70;;;;;;6221815;28;20123;-77
2021/07/11 07:46:29;;;;;;;2.70;1.73;;;22.50;79.50;;;;;;6223736;28;20123;-77
2021/07/11 07:49:32;;;;;;;4.07;2.45;;;22.30;80.90;;;;;;6227731;28;20137;-77
2021/07/11 07:52:34;;;;;;;4.20;2.15;;;22.20;81.30;;;;;;6227256;28;20049;-77
2021/07/11 07:55:36;;;;;;;2.58;1.58;;;22.30;82.00;;;;;;6227034;28;20414;-77
2021/07/11 07:58:37;;;;;;;3.35;1.70;;;22.40;81.80;;;;;;6221932;28;20188;-77
2021/07/11 08:01:39;;;;;;;4.88;1.65;;;22.60;81.20;;;;;;6228282;28;20050;-78
2021/07/11 08:04:43;;;;;;;2.42;1.75;;;22.60;81.00;;;;;;6227434;28;20042;-78
2021/07/11 08:07:45;;;;;;;4.47;1.77;;;22.70;81.00;;;;;;6228705;28;20053;-78
2021/07/11 08:10:47;;;;;;;1.95;1.63;;;22.60;81.20;;;;;;6229247;28;20053;-76
2021/07/11 08:13:49;;;;;;;4.53;1.98;;;22.60;82.40;;;;;;6230150;28;20049;-79
2021/07/11 08:16:51;;;;;;;2.65;1.88;;;22.70;81.50;;;;;;6229115;28;20046;-78
2021/07/11 08:19:55;;;;;;;5.25;1.80;;;22.60;80.40;;;;;;6227492;28;20517;-78
2021/07/11 08:22:58;;;;;;;4.60;2.30;;;22.50;80.60;;;;;;6228599;28;20050;-78
2021/07/11 08:26:00;;;;;;;4.20;2.72;;;22.30;81.20;;;;;;6228175;28;20049;-78
2021/07/11 08:29:02;;;;;;;6.75;1.92;;;22.30;81.80;;;;;;6228967;28;20418;-78
2021/07/11 08:32:05;;;;;;;6.28;1.83;;;22.30;81.70;;;;;;6228383;28;20073;-77
2021/07/11 08:35:09;;;;;;;3.92;2.17;;;22.30;82.50;;;;;;6229212;28;20092;-78
2021/07/11 08:38:11;;;;;;;3.10;2.00;;;22.50;82.00;;;;;;6226671;28;20462;-77
2021/07/11 08:41:14;;;;;;;2.90;1.80;;;22.60;81.30;;;;;;6228241;28;20050;-77
2021/07/11 08:44:16;;;;;;;2.63;1.90;;;22.70;78.50;;;;;;6227495;28;20053;-77
2021/07/11 08:47:18;;;;;;;5.30;1.88;;;22.80;79.50;;;;;;6226653;28;20101;-77
2021/07/11 08:50:21;;;;;;;2.17;1.65;;;22.90;79.30;;;;;;6226558;28;20052;-76
2021/07/11 08:53:23;;;;;;;2.55;1.45;;;23.00;79.80;;;;;;6226003;28;20557;-77
2021/07/11 08:56:28;;;;;;;4.10;1.65;;;23.40;76.60;;;;;;6224841;28;20046;-77
2021/07/11 08:59:30;;;;;;;3.63;1.73;;;24.00;75.00;;;;;;6223770;28;20046;-76
2021/07/11 09:02:32;;;;;;;2.38;1.60;;;24.50;72.20;;;;;;6225420;28;20120;-77
2021/07/11 09:05:39;;;;;;;4.32;1.55;;;24.80;70.60;;;;;;6226207;28;20062;-77
2021/07/11 09:08:43;;;;;;;3.15;1.67;;;25.10;69.60;;;;;;6225335;28;20046;-76
2021/07/11 09:11:49;;;;;;;3.45;1.83;;;25.20;69.10;;;;;;6224749;28;20045;-77
2021/07/11 09:14:53;;;;;;;2.58;1.73;;;25.30;66.80;;;;;;6225262;28;20187;-76
2021/07/11 09:17:56;;;;;;;3.67;2.10;;;25.30;66.90;;;;;;6224711;28;20147;-77
2021/07/11 09:21:02;;;;;;;3.90;1.83;;;25.40;66.00;;;;;;6223833;28;20427;-77
2021/07/11 09:24:11;;;;;;;2.72;1.63;;;25.60;65.10;;;;;;6224562;28;20125;-76
2021/07/11 09:27:15;;;;;;;2.55;1.52;;;25.90;65.10;;;;;;6224522;28;20038;-77
2021/07/11 09:30:18;;;;;;;2.75;1.50;;;26.10;62.40;;;;;;6224841;28;20132;-76
2021/07/11 09:33:19;;;;;;;1.65;1.50;;;26.20;62.10;;;;;;6225033;28;20053;-76
2021/07/11 09:36:23;;;;;;;4.53;1.27;;;26.20;62.20;;;;;;6224138;28;20050;-77
2021/07/11 09:39:25;;;;;;;3.88;1.15;;;26.30;59.70;;;;;;6224275;28;20049;-77
2021/07/11 09:42:30;;;;;;;2.10;1.42;;;26.40;59.20;;;;;;6224486;28;20069;-77
2021/07/11 09:45:33;;;;;;;1.85;1.33;;;26.80;59.10;;;;;;6224698;28;20462;-75
2021/07/11 09:48:35;;;;;;;2.45;1.05;;;27.30;57.20;;;;;;6223880;28;20053;-77
2021/07/11 09:51:38;;;;;;;1.85;1.40;;;27.30;56.80;;;;;;6210483;28;20057;-76
2021/07/11 09:54:40;;;;;;;1.27;1.13;;;26.80;57.80;;;;;;6221761;28;20105;-77
2021/07/11 09:57:44;;;;;;;2.22;1.83;;;26.40;59.40;;;;;;6211421;28;20043;-77
2021/07/11 10:00:46;;;;;;;2.47;1.90;;;26.10;59.50;;;;;;6212493;28;20054;-76
2021/07/11 10:03:49;;;;;;;2.75;1.85;;;25.80;60.90;;;;;;6210107;28;20047;-77
2021/07/11 10:06:52;;;;;;;3.45;1.40;;;25.50;61.20;;;;;;6208017;28;20082;-77
2021/07/11 10:09:54;;;;;;;1.77;1.40;;;25.10;61.80;;;;;;6218224;28;20183;-76
2021/07/11 10:12:57;;;;;;;3.63;1.40;;;25.10;63.20;;;;;;6210242;28;20259;-76
2021/07/11 10:16:01;;;;;;;2.08;1.20;;;25.10;61.60;;;;;;6209135;28;20124;-77
2021/07/11 10:19:07;;;;;;;1.52;1.23;;;25.40;61.90;;;;;;6212105;28;20065;-77
2021/07/11 10:22:16;;;;;;;1.63;1.00;;;25.60;60.60;;;;;;6213672;28;20058;-77
2021/07/11 10:25:20;;;;;;;3.45;1.45;;;26.00;60.40;;;;;;6223851;28;20529;-77
2021/07/11 10:28:26;;;;;;;2.70;1.70;;;26.30;58.20;;;;;;6223371;28;20160;-76
2021/07/11 10:31:30;;;;;;;3.08;1.48;;;26.40;59.00;;;;;;6223151;28;20093;-77
2021/07/11 10:34:35;;;;;;;1.85;1.45;;;26.20;58.50;;;;;;6223249;28;20045;-77
2021/07/11 10:37:51;;;;;;;3.50;2.13;;;25.80;61.10;;;;;;6223674;28;20053;-77
2021/07/11 10:40:53;;;;;;;2.45;1.98;;;25.60;63.20;;;;;;6223492;28;20482;-77
2021/07/11 10:44:08;;;;;;;2.63;1.50;;;26.10;62.10;;;;;;6223277;28;20069;-76
2021/07/11 10:47:10;;;;;;;2.85;1.40;;;26.50;61.00;;;;;;6214265;28;20487;-75
2021/07/11 10:50:28;;;;;;;2.92;2.55;;;26.70;58.90;;;;;;6207638;28;20054;-74
2021/07/11 10:53:37;;;;;;;2.35;1.73;;;26.30;58.00;;;;;;6199758;28;20058;-74
2021/07/11 10:56:44;;;;;;;1.60;1.40;;;26.20;59.60;;;;;;6198555;28;20050;-74
2021/07/11 10:59:46;;;;;;;5.78;2.40;;;26.40;59.50;;;;;;6199755;28;20039;-74
2021/07/11 11:02:51;;;;;;;2.28;1.20;;;26.70;58.40;;;;;;6223370;28;20057;-74
2021/07/11 11:05:54;;;;;;;1.88;1.30;;;27.00;58.50;;;;;;6226760;28;20487;-75
2021/07/11 11:08:57;;;;;;;1.55;1.45;;;27.40;56.50;;;;;;6223901;28;20463;-76
2021/07/11 11:12:00;;;;;;;1.85;1.50;;;27.70;54.30;;;;;;6223181;28;20046;-73
2021/07/11 11:15:12;;;;;;;3.53;1.20;;;28.00;52.80;;;;;;6202528;28;20070;-74
2021/07/11 11:18:20;;;;;;;4.03;1.83;;;28.20;53.40;;;;;;6199424;28;20136;-75
2021/07/11 11:21:24;;;;;;;2.63;1.23;;;28.20;51.50;;;;;;6200957;28;20050;-75
2021/07/11 11:24:28;;;;;;;2.35;0.98;;;27.80;52.00;;;;;;6216869;28;20062;-74
2021/07/11 11:27:42;;;;;;;2.63;1.30;;;27.20;51.30;;;;;;6217894;28;20042;-75
2021/07/11 11:30:45;;;;;;;3.65;1.17;;;26.80;53.70;;;;;;6223129;28;20041;-75
2021/07/11 11:33:53;;;;;;;1.83;1.20;;;26.70;54.70;;;;;;6223762;28;20068;-75
2021/07/11 11:36:58;;;;;;;1.52;0.90;;;26.50;55.70;;;;;;6222416;28;20103;-76
2021/07/11 11:40:05;;;;;;;1.70;1.52;;;26.20;58.10;;;;;;6223577;28;20103;-76
2021/07/11 11:43:08;;;;;;;2.60;1.67;;;25.80;59.70;;;;;;6222406;28;20421;-75
2021/07/11 11:46:10;;;;;;;3.83;1.90;;;25.90;59.30;;;;;;6222774;28;20432;-75
2021/07/11 11:49:14;;;;;;;2.25;1.63;;;26.00;59.40;;;;;;6223486;28;20520;-76
2021/07/11 11:52:16;;;;;;;2.40;2.00;;;26.20;59.10;;;;;;6222912;28;20480;-76
2021/07/11 11:55:20;;;;;;;2.10;1.00;;;26.30;56.70;;;;;;6223832;28;20425;-76
2021/07/11 11:58:26;;;;;;;2.55;1.38;;;26.40;55.80;;;;;;6224169;28;20424;-76
2021/07/11 12:01:34;;;;;;;2.20;1.40;;;26.50;56.70;;;;;;6225273;28;20799;-76
2021/07/11 12:04:36;;;;;;;3.47;1.55;;;26.70;57.40;;;;;;6224093;28;20484;-75
2021/07/11 12:07:39;;;;;;;1.50;1.30;;;27.00;55.40;;;;;;6225325;28;20428;-76
2021/07/11 12:10:43;;;;;;;2.95;1.45;;;27.20;54.30;;;;;;6225091;28;20421;-75
2021/07/11 12:13:45;;;;;;;2.30;1.55;;;27.40;55.00;;;;;;6224612;28;20858;-76
2021/07/11 12:16:56;;;;;;;1.50;1.17;;;27.40;54.40;;;;;;6221550;28;20409;-75
2021/07/11 12:19:59;;;;;;;2.72;1.30;;;27.40;53.60;;;;;;6222124;28;20416;-75
2021/07/11 12:23:08;;;;;;;1.80;1.30;;;27.40;54.40;;;;;;6221972;28;20421;-75
2021/07/11 12:26:13;;;;;;;2.28;1.08;;;27.40;54.10;;;;;;6217584;28;20428;-76
2021/07/11 12:29:19;;;;;;;2.85;1.42;;;27.40;54.70;;;;;;6222262;28;20935;-76
2021/07/11 12:32:21;;;;;;;1.95;1.67;;;27.50;54.10;;;;;;6223445;28;20424;-76
2021/07/11 12:35:24;;;;;;;1.80;1.13;;;27.40;56.10;;;;;;6225960;28;20425;-75
2021/07/11 12:38:31;;;;;;;2.20;1.40;;;27.50;54.30;;;;;;6225930;28;20417;-75
2021/07/11 12:41:36;;;;;;;2.00;1.25;;;27.50;54.60;;;;;;6227693;28;20487;-75
2021/07/11 12:44:41;;;;;;;1.45;1.30;;;27.40;53.60;;;;;;6226145;28;20417;-76
2021/07/11 12:47:50;;;;;;;1.50;1.20;;;27.20;55.30;;;;;;6226293;28;20448;-75
2021/07/11 12:50:52;;;;;;;1.92;1.50;;;27.10;54.30;;;;;;6224712;28;20506;-75
2021/07/11 12:53:58;;;;;;;1.65;1.05;;;27.20;54.80;;;;;;6226212;28;20429;-76
2021/07/11 12:57:03;;;;;;;2.60;1.30;;;27.10;54.00;;;;;;6225875;28;20502;-76
2021/07/11 13:00:07;;;;;;;2.80;1.23;;;27.20;54.20;;;;;;6224353;28;20427;-76
2021/07/11 13:03:09;;;;;;;5.53;1.73;;;27.20;53.80;;;;;;6221127;28;20891;-76
2021/07/11 13:06:14;;;;;;;1.23;1.10;;;27.20;52.20;;;;;;6223943;28;20910;-77
2021/07/11 13:09:16;;;;;;;1.85;1.20;;;27.30;53.40;;;;;;6225978;28;20428;-77
2021/07/11 13:12:21;;;;;;;2.45;1.23;;;27.40;54.20;;;;;;6225037;28;20421;-77
2021/07/11 13:15:23;;;;;;;2.30;1.17;;;27.30;52.80;;;;;;6200393;28;20564;-78
2021/07/11 13:18:25;;;;;;;2.10;1.38;;;27.30;53.40;;;;;;6199760;28;20414;-77
2021/07/11 13:21:27;;;;;;;1.50;1.20;;;27.40;53.70;;;;;;6201105;28;20512;-77
2021/07/11 13:24:29;;;;;;;1.17;1.00;;;27.60;54.00;;;;;;6210334;28;20433;-77
2021/07/11 13:27:33;;;;;;;2.45;1.33;;;28.00;53.20;;;;;;6223798;28;20914;-77
2021/07/11 13:30:35;;;;;;;2.50;1.00;;;28.30;50.50;;;;;;6224936;28;20499;-78
2021/07/11 13:33:37;;;;;;;1.90;1.00;;;28.40;49.10;;;;;;6225687;28;20530;-77
2021/07/11 13:36:40;;;;;;;1.17;0.90;;;28.40;48.50;;;;;;6223994;28;20440;-77
2021/07/11 13:39:42;;;;;;;1.70;1.40;;;28.50;49.20;;;;;;6224521;28;20424;-77
2021/07/11 13:42:46;;;;;;;0.82;0.80;;;28.60;48.20;;;;;;6224186;28;20419;-77
2021/07/11 13:45:52;;;;;;;1.95;1.00;;;28.80;47.80;;;;;;6226521;28;20519;-78
2021/07/11 13:48:54;;;;;;;2.60;1.17;;;28.70;47.20;;;;;;6229056;28;20423;-78
2021/07/11 13:51:57;;;;;;;3.38;1.60;;;28.80;48.70;;;;;;6227641;28;20429;-79
2021/07/11 13:54:59;;;;;;;2.20;1.37;;;28.90;48.80;;;;;;6228439;28;20925;-77
2021/07/11 13:58:06;;;;;;;2.10;0.98;;;28.90;49.60;;;;;;6226941;28;20429;-77
2021/07/11 14:01:07;;;;;;;1.37;1.03;;;28.90;50.60;;;;;;6227590;28;20558;-79
2021/07/11 14:04:09;;;;;;;1.90;1.27;;;28.90;49.60;;;;;;6199500;28;20482;-78
2021/07/11 14:07:11;;;;;;;1.30;1.00;;;28.90;48.70;;;;;;6198259;28;20987;-80
2021/07/11 14:10:14;;;;;;;1.67;1.20;;;28.80;48.60;;;;;;6199631;28;20440;-78
2021/07/11 14:13:17;;;;;;;2.53;1.30;;;28.90;49.30;;;;;;6215378;28;20799;-78
2021/07/11 14:16:19;;;;;;;3.28;1.20;;;28.90;49.20;;;;;;6198914;28;20469;-78
2021/07/11 14:19:21;;;;;;;2.28;1.30;;;29.00;50.60;;;;;;6198705;28;20916;-78
2021/07/11 14:22:22;;;;;;;1.33;1.13;;;28.90;49.50;;;;;;6199022;28;20446;-78
2021/07/11 14:25:24;;;;;;;3.30;1.05;;;28.70;50.00;;;;;;6204586;28;20521;-78
2021/07/11 14:28:28;;;;;;;1.60;1.13;;;28.70;50.20;;;;;;6221926;28;20496;-78
2021/07/11 14:31:30;;;;;;;1.58;1.17;;;28.60;50.40;;;;;;6223121;28;20420;-79
2021/07/11 14:34:32;;;;;;;2.42;1.58;;;28.70;50.30;;;;;;6222645;28;20496;-77
2021/07/11 14:37:34;;;;;;;1.85;1.33;;;28.60;50.40;;;;;;6221623;28;20518;-77
2021/07/11 14:40:37;;;;;;;1.42;1.10;;;28.60;49.50;;;;;;6221529;28;20500;-78
2021/07/11 14:43:40;;;;;;;2.13;1.10;;;28.60;48.80;;;;;;6221871;28;20535;-77
2021/07/11 14:46:42;;;;;;;1.98;1.33;;;28.90;48.30;;;;;;6221491;28;20503;-77
2021/07/11 14:49:45;;;;;;;3.70;1.20;;;28.80;47.40;;;;;;6221401;28;20507;-77
2021/07/11 14:52:47;;;;;;;1.45;0.98;;;28.70;48.10;;;;;;6221421;28;20531;-78
2021/07/11 14:55:50;;;;;;;1.27;1.13;;;28.80;47.60;;;;;;6221717;28;20571;-77
2021/07/11 14:58:53;;;;;;;1.30;1.20;;;29.10;46.80;;;;;;6220956;28;20500;-78
2021/07/11 15:01:55;;;;;;;2.70;1.30;;;29.30;44.90;;;;;;6222068;28;20444;-77
2021/07/11 15:04:57;;;;;;;1.30;1.20;;;29.40;47.40;;;;;;6220875;28;20503;-78
2021/07/11 15:07:59;;;;;;;1.95;0.95;;;29.40;48.30;;;;;;6221272;28;20476;-77
2021/07/11 15:11:01;;;;;;;2.67;1.17;;;29.30;47.50;;;;;;6175524;28;20971;-78
2021/07/11 15:14:04;;;;;;;1.23;1.08;;;29.20;48.00;;;;;;6214646;28;20472;-77
2021/07/11 15:17:06;;;;;;;1.30;1.20;;;29.10;48.30;;;;;;6220939;28;20869;-78
2021/07/11 15:20:08;;;;;;;3.83;1.10;;;29.20;48.40;;;;;;6220196;28;20824;-77
2021/07/11 15:23:10;;;;;;;1.83;0.80;;;29.40;48.30;;;;;;6196905;28;20424;-77
2021/07/11 15:26:14;;;;;;;2.33;0.93;;;29.50;47.00;;;;;;6203637;28;20571;-77
2021/07/11 15:29:17;;;;;;;1.00;0.80;;;29.70;44.20;;;;;;6202879;28;20430;-77
2021/07/11 15:32:19;;;;;;;3.25;1.17;;;29.70;46.20;;;;;;6196468;28;20510;-78
2021/07/11 15:35:21;;;;;;;1.00;0.90;;;29.50;45.80;;;;;;6195902;28;20423;-77
2021/07/11 15:38:23;;;;;;;1.70;1.30;;;29.10;46.00;;;;;;6195743;28;20425;-77
2021/07/11 15:41:25;;;;;;;1.25;1.10;;;29.10;47.70;;;;;;6196268;28;20982;-77
2021/07/11 15:44:28;;;;;;;3.35;0.90;;;29.10;47.80;;;;;;6196158;28;20455;-77
2021/07/11 15:47:30;;;;;;;2.58;1.50;;;29.10;47.70;;;;;;6196061;28;20834;-77
2021/07/11 15:50:32;;;;;;;1.73;0.88;;;29.20;47.00;;;;;;6196603;28;20531;-77
2021/07/11 15:53:34;;;;;;;1.90;1.30;;;29.40;47.40;;;;;;6196596;28;20434;-78
2021/07/11 15:56:36;;;;;;;1.55;1.00;;;29.60;46.60;;;;;;6195413;28;20508;-77